Time;durP1;ratioP1;P1;durP2;ratioP2;P2;SDS_P1;SDS_P2;PMS_P1;PMS_P2;Temp;Humidity;BMP_temperature;BMP_pressure;BME280_temperature;BME280_humidity;BME280_pressure;Samples;Min_cycle;Max_cycle;Signal;HPM_P1;HPM_P2
2023/05/17 00:01:11;;;;;;;1.00;1.00;;;;;;;;;;4954094;28;20434;-67
2023/05/17 00:03:36;;;;;;;2.60;1.60;;;;;;;;;;4970400;28;20482;-67
2023/05/17 00:06:02;;;;;;;1.53;1.00;;;;;;;;;;4971849;28;20485;-67
2023/05/17 00:08:28;;;;;;;2.93;1.10;;;;;;;;;;4969681;28;20446;-67
2023/05/17 00:10:55;;;;;;;5.27;1.47;;;;;;;;;;4953851;28;20452;-67
2023/05/17 00:13:21;;;;;;;0.83;0.83;;;;;;;;;;4965659;28;20442;-67
2023/05/17 00:15:47;;;;;;;1.20;1.07;;;;;;;;;;4971994;28;20513;-68
2023/05/17 00:18:13;;;;;;;1.70;1.13;;;;;;;;;;4967618;28;20528;-67
2023/05/17 00:20:39;;;;;;;3.80;1.20;;;;;;;;;;4970881;28;20428;-67
2023/05/17 00:23:05;;;;;;;3.03;1.37;;;;;;;;;;4963631;28;20490;-67
2023/05/17 00:25:31;;;;;;;1.20;1.10;;;;;;;;;;4971300;28;20434;-68
2023/05/17 00:27:56;;;;;;;3.47;1.47;;;;;;;;;;4970807;28;20933;-67
2023/05/17 00:30:22;;;;;;;1.80;1.70;;;;;;;;;;4971848;28;20775;-67
2023/05/17 00:32:48;;;;;;;3.23;1.80;;;;;;;;;;4968674;28;20582;-67
2023/05/17 00:35:14;;;;;;;7.07;1.77;;;;;;;;;;4971777;28;20425;-67
2023/05/17 00:37:46;;;;;;;2.90;1.50;;;;;;;;;;4970380;28;20450;-67
2023/05/17 00:40:12;;;;;;;3.13;1.97;;;;;;;;;;4971939;28;20420;-67
2023/05/17 00:42:38;;;;;;;3.33;1.43;;;;;;;;;;4970943;28;20488;-67
2023/05/17 00:45:05;;;;;;;0.67;0.67;;;;;;;;;;4970490;28;20434;-67
2023/05/17 00:47:30;;;;;;;1.00;0.90;;;;;;;;;;4962542;28;20438;-67
2023/05/17 00:49:56;;;;;;;0.93;0.93;;;;;;;;;;4966933;28;20450;-67
2023/05/17 00:52:22;;;;;;;0.80;0.80;;;;;;;;;;4953206;28;20447;-67
2023/05/17 00:54:49;;;;;;;0.80;0.80;;;;;;;;;;4966453;28;20437;-67
2023/05/17 00:57:15;;;;;;;1.23;1.10;;;;;;;;;;4956534;28;21020;-67
2023/05/17 00:59:42;;;;;;;1.27;1.10;;;;;;;;;;4971297;28;20494;-67
2023/05/17 01:02:09;;;;;;;1.43;0.93;;;;;;;;;;4970523;28;20980;-67
2023/05/17 01:04:35;;;;;;;0.97;0.97;;;;;;;;;;4971133;28;20486;-67
2023/05/17 01:07:01;;;;;;;1.00;1.00;;;;;;;;;;4971014;28;20426;-67
2023/05/17 01:09:27;;;;;;;1.47;1.40;;;;;;;;;;4971370;28;20801;-67
2023/05/17 01:12:12;;;;;;;3.30;1.10;;;;;;;;;;4959276;28;20451;-67
2023/05/17 01:14:44;;;;;;;1.70;1.60;;;;;;;;;;4971407;28;20469;-67
2023/05/17 01:17:17;;;;;;;11.60;2.20;;;;;;;;;;4969724;28;20446;-67
2023/05/17 01:19:56;;;;;;;2.47;1.90;;;;;;;;;;4969849;28;20540;-67
2023/05/17 01:22:46;;;;;;;1.70;1.40;;;;;;;;;;4969043;28;20481;-67
2023/05/17 01:25:23;;;;;;;2.43;1.17;;;;;;;;;;4970703;28;20496;-67
2023/05/17 01:27:50;;;;;;;1.63;0.97;;;;;;;;;;4969998;28;20484;-67
2023/05/17 01:30:18;;;;;;;1.63;1.30;;;;;;;;;;4970189;28;20483;-67
2023/05/17 01:32:44;;;;;;;3.60;0.93;;;;;;;;;;4968189;28;20462;-67
2023/05/17 01:35:11;;;;;;;3.40;1.20;;;;;;;;;;4971025;28;21008;-67
2023/05/17 01:37:37;;;;;;;11.80;1.10;;;;;;;;;;4965266;28;21025;-67
2023/05/17 01:40:04;;;;;;;1.40;1.30;;;;;;;;;;4970085;28;20473;-67
2023/05/17 01:42:31;;;;;;;1.03;0.87;;;;;;;;;;4971027;28;20481;-67
2023/05/17 01:45:09;;;;;;;1.23;0.70;;;;;;;;;;4970499;28;20442;-67
2023/05/17 01:47:35;;;;;;;3.10;1.23;;;;;;;;;;4970644;28;20441;-67
2023/05/17 01:50:03;;;;;;;2.23;0.90;;;;;;;;;;4967468;28;20529;-67
2023/05/17 01:52:37;;;;;;;1.10;1.10;;;;;;;;;;4962348;28;20450;-67
2023/05/17 01:55:09;;;;;;;2.90;1.27;;;;;;;;;;4970531;28;20455;-67
2023/05/17 01:57:36;;;;;;;0.93;0.83;;;;;;;;;;4973210;28;20946;-67
2023/05/17 02:00:05;;;;;;;0.80;0.70;;;;;;;;;;4974147;28;20442;-67
2023/05/17 02:02:31;;;;;;;2.40;1.03;;;;;;;;;;4958800;28;20580;-67
2023/05/17 02:04:57;;;;;;;0.80;0.80;;;;;;;;;;4974566;28;20551;-67
2023/05/17 02:07:23;;;;;;;1.37;1.20;;;;;;;;;;4973003;28;20960;-67
2023/05/17 02:09:49;;;;;;;2.10;0.83;;;;;;;;;;4970112;28;20508;-67
2023/05/17 02:12:15;;;;;;;0.83;0.70;;;;;;;;;;4967224;28;20434;-67
2023/05/17 02:14:41;;;;;;;1.53;0.80;;;;;;;;;;4974989;28;20788;-67
2023/05/17 02:17:07;;;;;;;0.70;0.70;;;;;;;;;;4974170;28;20434;-67
2023/05/17 02:19:33;;;;;;;0.80;0.80;;;;;;;;;;4971906;28;20441;-67
2023/05/17 02:21:59;;;;;;;0.83;0.83;;;;;;;;;;4974094;28;20488;-67
2023/05/17 02:24:25;;;;;;;1.40;1.30;;;;;;;;;;4973670;28;21031;-67
2023/05/17 02:26:51;;;;;;;3.20;0.90;;;;;;;;;;4972872;28;20445;-67
2023/05/17 02:29:17;;;;;;;2.93;1.20;;;;;;;;;;4973571;28;20809;-67
2023/05/17 02:31:44;;;;;;;2.30;1.20;;;;;;;;;;4961467;28;20441;-67
2023/05/17 02:34:10;;;;;;;3.67;1.07;;;;;;;;;;4968675;28;20977;-67
2023/05/17 02:36:36;;;;;;;1.20;0.90;;;;;;;;;;4970664;28;20533;-67
2023/05/17 02:39:02;;;;;;;0.67;0.67;;;;;;;;;;4973852;28;20524;-67
2023/05/17 02:41:28;;;;;;;1.10;1.00;;;;;;;;;;4964413;28;20482;-67
2023/05/17 02:43:54;;;;;;;0.80;0.80;;;;;;;;;;4974178;28;20456;-67
2023/05/17 02:46:20;;;;;;;3.73;1.13;;;;;;;;;;4973528;28;20422;-67
2023/05/17 02:48:47;;;;;;;12.53;1.20;;;;;;;;;;4971747;28;20801;-67
2023/05/17 02:51:13;;;;;;;0.83;0.83;;;;;;;;;;4964522;28;20786;-67
2023/05/17 02:53:39;;;;;;;1.23;0.83;;;;;;;;;;4973629;28;20430;-67
2023/05/17 02:56:05;;;;;;;1.27;0.93;;;;;;;;;;4973349;28;20830;-67
2023/05/17 02:58:31;;;;;;;0.70;0.70;;;;;;;;;;4973048;28;20473;-67
2023/05/17 03:00:57;;;;;;;2.00;1.30;;;;;;;;;;4973289;28;20520;-67
2023/05/17 03:03:23;;;;;;;2.80;1.10;;;;;;;;;;4970125;28;20501;-67
2023/05/17 03:05:49;;;;;;;4.43;1.10;;;;;;;;;;4963923;28;20469;-67
2023/05/17 03:08:15;;;;;;;2.10;0.93;;;;;;;;;;4972200;28;20442;-67
2023/05/17 03:10:41;;;;;;;4.87;1.20;;;;;;;;;;4965029;28;20439;-68
2023/05/17 03:13:07;;;;;;;1.90;1.00;;;;;;;;;;4959634;28;20450;-67
2023/05/17 03:15:33;;;;;;;1.40;0.97;;;;;;;;;;4973168;28;20437;-67
2023/05/17 03:17:59;;;;;;;1.83;0.90;;;;;;;;;;4972690;28;20457;-67
2023/05/17 03:20:25;;;;;;;1.70;0.70;;;;;;;;;;4972756;28;20993;-67
2023/05/17 03:22:51;;;;;;;2.33;1.50;;;;;;;;;;4972955;28;20616;-67
2023/05/17 03:25:17;;;;;;;0.83;0.83;;;;;;;;;;4972626;28;20426;-67
2023/05/17 03:27:43;;;;;;;1.20;1.20;;;;;;;;;;4973429;28;20433;-67
2023/05/17 03:30:09;;;;;;;4.10;1.10;;;;;;;;;;4967644;28;20442;-67
2023/05/17 03:32:37;;;;;;;10.23;1.80;;;;;;;;;;4971717;28;20450;-67
2023/05/17 03:35:03;;;;;;;4.47;1.43;;;;;;;;;;4972104;28;20453;-67
2023/05/17 03:37:29;;;;;;;1.63;1.50;;;;;;;;;;4972633;28;20852;-67
2023/05/17 03:39:55;;;;;;;1.23;1.10;;;;;;;;;;4972940;28;20588;-68
2023/05/17 03:42:21;;;;;;;2.77;0.87;;;;;;;;;;4973014;28;20485;-67
2023/05/17 03:44:47;;;;;;;7.10;1.00;;;;;;;;;;4972369;28;20434;-67
2023/05/17 03:47:13;;;;;;;2.07;1.97;;;;;;;;;;4959420;28;20517;-67
2023/05/17 03:49:39;;;;;;;2.73;1.33;;;;;;;;;;4972817;28;20508;-67
2023/05/17 03:52:05;;;;;;;6.40;1.43;;;;;;;;;;4972564;28;20433;-67
2023/05/17 03:54:31;;;;;;;1.60;1.30;;;;;;;;;;4968798;28;20422;-67
2023/05/17 03:56:57;;;;;;;2.40;1.00;;;;;;;;;;4954294;28;20474;-67
2023/05/17 03:59:23;;;;;;;4.87;1.27;;;;;;;;;;4970243;28;20485;-67
2023/05/17 04:01:49;;;;;;;2.37;1.73;;;;;;;;;;4971016;28;20486;-67
2023/05/17 04:04:15;;;;;;;3.30;1.07;;;;;;;;;;4962837;28;20449;-67
2023/05/17 04:06:41;;;;;;;1.63;1.27;;;;;;;;;;4972316;28;20458;-67
2023/05/17 04:09:09;;;;;;;0.83;0.83;;;;;;;;;;4972267;28;20437;-67
2023/05/17 04:11:36;;;;;;;6.23;1.37;;;;;;;;;;4972149;28;20489;-67
2023/05/17 04:14:02;;;;;;;2.33;1.43;;;;;;;;;;4968832;28;20461;-67
2023/05/17 04:16:28;;;;;;;4.57;1.27;;;;;;;;;;4970572;28;20778;-67
2023/05/17 04:18:55;;;;;;;4.53;1.47;;;;;;;;;;4967420;28;20478;-67
2023/05/17 04:21:21;;;;;;;3.60;1.40;;;;;;;;;;4952935;28;20422;-67
2023/05/17 04:23:47;;;;;;;4.97;1.83;;;;;;;;;;4952808;28;20483;-67
2023/05/17 04:26:13;;;;;;;1.90;0.90;;;;;;;;;;4966541;28;20430;-67
2023/05/17 04:28:40;;;;;;;1.60;0.97;;;;;;;;;;4972045;28;20898;-67
2023/05/17 04:31:08;;;;;;;3.40;0.97;;;;;;;;;;4968367;28;20445;-67
2023/05/17 04:33:35;;;;;;;1.30;1.30;;;;;;;;;;4969965;28;20457;-68
2023/05/17 04:36:01;;;;;;;2.03;1.30;;;;;;;;;;4971838;28;20423;-68
2023/05/17 04:38:27;;;;;;;2.20;1.50;;;;;;;;;;4971647;28;20481;-67
2023/05/17 04:40:53;;;;;;;2.40;1.00;;;;;;;;;;4963363;28;20772;-67
2023/05/17 04:43:19;;;;;;;6.50;1.47;;;;;;;;;;4970670;28;20539;-67
2023/05/17 04:45:45;;;;;;;1.60;1.50;;;;;;;;;;4969679;28;20429;-67
2023/05/17 04:48:11;;;;;;;0.70;0.70;;;;;;;;;;4962716;28;20577;-67
2023/05/17 04:50:37;;;;;;;1.60;1.50;;;;;;;;;;4952609;28;20449;-68
2023/05/17 04:53:03;;;;;;;0.93;0.93;;;;;;;;;;4967015;28;20450;-68
2023/05/17 04:55:29;;;;;;;1.73;1.33;;;;;;;;;;4967687;28;20480;-68
2023/05/17 04:57:55;;;;;;;1.43;1.10;;;;;;;;;;4951209;28;20579;-68
2023/05/17 05:00:22;;;;;;;6.63;1.47;;;;;;;;;;4956843;28;20525;-67
2023/05/17 05:02:48;;;;;;;1.60;0.90;;;;;;;;;;4971240;28;20536;-67
2023/05/17 05:05:14;;;;;;;1.80;1.00;;;;;;;;;;4970948;28;20977;-67
2023/05/17 05:07:40;;;;;;;3.37;1.10;;;;;;;;;;4970857;28;20430;-68
2023/05/17 05:10:07;;;;;;;1.03;1.03;;;;;;;;;;4970335;28;20435;-67
2023/05/17 05:12:33;;;;;;;3.00;1.00;;;;;;;;;;4971197;28;20558;-68
2023/05/17 05:14:58;;;;;;;3.03;1.23;;;;;;;;;;4966805;28;20475;-68
2023/05/17 05:17:24;;;;;;;1.03;1.03;;;;;;;;;;4951888;28;20419;-67
2023/05/17 05:19:51;;;;;;;4.50;1.90;;;;;;;;;;4962602;28;20501;-67
2023/05/17 05:22:16;;;;;;;5.23;1.20;;;;;;;;;;4968936;28;20472;-59
2023/05/17 05:24:42;;;;;;;4.20;0.90;;;;;;;;;;4970971;28;20442;-68
2023/05/17 05:27:08;;;;;;;2.27;1.10;;;;;;;;;;4970767;28;20446;-67
2023/05/17 05:29:34;;;;;;;1.17;1.07;;;;;;;;;;4970423;28;20554;-67
2023/05/17 05:32:01;;;;;;;2.63;1.30;;;;;;;;;;4959813;28;20517;-68
2023/05/17 05:34:28;;;;;;;2.43;1.20;;;;;;;;;;4970374;28;20527;-67
2023/05/17 05:36:54;;;;;;;1.70;1.60;;;;;;;;;;4969488;28;20434;-68
2023/05/17 05:39:20;;;;;;;1.30;1.30;;;;;;;;;;4969132;28;20477;-67
2023/05/17 05:41:46;;;;;;;1.40;1.30;;;;;;;;;;4966084;28;20588;-68
2023/05/17 05:44:12;;;;;;;7.33;1.57;;;;;;;;;;4970042;28;20945;-68
2023/05/17 05:46:38;;;;;;;1.23;1.23;;;;;;;;;;4952620;28;20418;-67
2023/05/17 05:49:04;;;;;;;2.77;0.83;;;;;;;;;;4965512;28;20457;-61
2023/05/17 05:51:30;;;;;;;5.47;1.50;;;;;;;;;;4967693;28;20430;-67
2023/05/17 05:53:57;;;;;;;4.00;1.20;;;;;;;;;;4965801;28;20450;-68
2023/05/17 05:56:24;;;;;;;3.33;1.50;;;;;;;;;;4968591;28;20440;-68
2023/05/17 05:58:50;;;;;;;1.40;1.30;;;;;;;;;;4967786;28;20516;-68
2023/05/17 06:01:16;;;;;;;1.67;1.57;;;;;;;;;;4966894;28;20480;-69
2023/05/17 06:03:42;;;;;;;2.00;1.43;;;;;;;;;;4969050;28;20489;-68
2023/05/17 06:06:09;;;;;;;3.60;1.20;;;;;;;;;;4968181;28;20528;-68
2023/05/17 06:08:35;;;;;;;0.93;0.93;;;;;;;;;;4969084;28;20906;-67
2023/05/17 06:11:01;;;;;;;8.53;1.70;;;;;;;;;;4969692;28;20957;-68
2023/05/17 06:13:27;;;;;;;2.70;1.10;;;;;;;;;;4970114;28;20438;-67
2023/05/17 06:15:53;;;;;;;2.30;1.37;;;;;;;;;;4970174;28;20434;-68
2023/05/17 06:18:18;;;;;;;0.90;0.90;;;;;;;;;;4970727;28;20441;-68
2023/05/17 06:20:45;;;;;;;6.53;1.20;;;;;;;;;;4970103;28;20849;-68
2023/05/17 06:23:11;;;;;;;2.10;1.40;;;;;;;;;;4970057;28;20528;-67
2023/05/17 06:25:37;;;;;;;1.10;1.10;;;;;;;;;;4970096;28;20425;-68
2023/05/17 06:28:03;;;;;;;2.83;1.47;;;;;;;;;;4970783;28;20445;-68
2023/05/17 06:30:29;;;;;;;3.23;1.20;;;;;;;;;;4970054;28;20446;-68
2023/05/17 06:32:55;;;;;;;4.87;1.50;;;;;;;;;;4970287;28;20430;-68
2023/05/17 06:35:21;;;;;;;4.33;1.20;;;;;;;;;;4970231;28;20449;-68
2023/05/17 06:37:47;;;;;;;2.60;1.47;;;;;;;;;;4970385;28;20516;-68
2023/05/17 06:40:13;;;;;;;1.40;1.20;;;;;;;;;;4964320;28;20440;-67
2023/05/17 06:42:39;;;;;;;1.43;0.97;;;;;;;;;;4970262;28;20485;-68
2023/05/17 06:45:06;;;;;;;8.13;1.53;;;;;;;;;;4974226;28;21201;-68
2023/05/17 06:47:32;;;;;;;3.30;1.37;;;;;;;;;;4972188;28;20493;-68
2023/05/17 06:49:57;;;;;;;3.33;1.10;;;;;;;;;;4973778;28;20429;-68
2023/05/17 06:52:23;;;;;;;1.23;1.10;;;;;;;;;;4970446;28;20444;-68
2023/05/17 06:54:49;;;;;;;2.43;1.53;;;;;;;;;;4972001;28;20465;-68
2023/05/17 06:57:17;;;;;;;1.00;1.00;;;;;;;;;;4963094;28;20426;-68
2023/05/17 06:59:43;;;;;;;2.47;1.20;;;;;;;;;;4954773;28;20458;-67
2023/05/17 07:02:09;;;;;;;1.33;1.10;;;;;;;;;;4958611;28;20481;-68
2023/05/17 07:04:35;;;;;;;13.17;1.97;;;;;;;;;;4968879;28;20942;-68
2023/05/17 07:07:01;;;;;;;1.77;1.33;;;;;;;;;;4954314;28;20418;-68
2023/05/17 07:09:27;;;;;;;5.83;1.93;;;;;;;;;;4969721;28;20458;-68
2023/05/17 07:11:53;;;;;;;7.13;1.50;;;;;;;;;;4969382;28;20438;-67
2023/05/17 07:14:19;;;;;;;3.03;1.30;;;;;;;;;;4972159;28;20429;-67
2023/05/17 07:16:46;;;;;;;4.10;1.07;;;;;;;;;;4972752;28;20894;-67
2023/05/17 07:19:12;;;;;;;4.53;1.43;;;;;;;;;;4971463;28;20474;-67
2023/05/17 07:21:38;;;;;;;2.57;1.67;;;;;;;;;;4972056;28;20426;-67
2023/05/17 07:24:04;;;;;;;1.37;1.27;;;;;;;;;;4957305;28;20490;-67
2023/05/17 07:26:30;;;;;;;0.87;0.87;;;;;;;;;;4972314;28;20430;-67
2023/05/17 07:28:56;;;;;;;1.90;1.90;;;;;;;;;;4965980;28;20495;-67
2023/05/17 07:31:22;;;;;;;3.40;1.40;;;;;;;;;;4963775;28;20476;-67
2023/05/17 07:33:48;;;;;;;2.37;1.30;;;;;;;;;;4969781;28;20473;-68
2023/05/17 07:36:14;;;;;;;0.90;0.77;;;;;;;;;;4968527;28;20438;-67
2023/05/17 07:38:40;;;;;;;5.57;2.50;;;;;;;;;;4968207;28;20450;-67
2023/05/17 07:41:12;;;;;;;1.37;1.20;;;;;;;;;;4958615;28;20446;-67
2023/05/17 07:43:38;;;;;;;5.60;1.63;;;;;;;;;;4964285;28;20576;-67
2023/05/17 07:46:04;;;;;;;1.13;1.10;;;;;;;;;;4970939;28;20516;-67
2023/05/17 07:48:30;;;;;;;1.83;1.70;;;;;;;;;;4971835;28;20450;-67
2023/05/17 07:50:56;;;;;;;1.70;1.60;;;;;;;;;;4960433;28;20500;-67
2023/05/17 07:53:22;;;;;;;2.43;1.37;;;;;;;;;;4961990;28;20507;-67
2023/05/17 07:55:49;;;;;;;4.03;1.83;;;;;;;;;;4967802;28;20446;-68
2023/05/17 07:58:15;;;;;;;1.67;1.60;;;;;;;;;;4969028;28;20493;-68
2023/05/17 08:00:41;;;;;;;4.13;1.50;;;;;;;;;;4970372;28;20442;-68
2023/05/17 08:03:07;;;;;;;3.33;1.47;;;;;;;;;;4963831;28;20802;-68
2023/05/17 08:05:33;;;;;;;10.60;1.70;;;;;;;;;;4971720;28;20418;-68
2023/05/17 08:07:59;;;;;;;3.07;1.80;;;;;;;;;;4970932;28;20429;-68
2023/05/17 08:10:28;;;;;;;4.63;2.00;;;;;;;;;;4968332;28;20430;-68
2023/05/17 08:12:54;;;;;;;1.87;1.43;;;;;;;;;;4962351;28;20484;-67
2023/05/17 08:15:21;;;;;;;2.00;1.90;;;;;;;;;;4971362;28;20473;-68
2023/05/17 08:17:47;;;;;;;5.87;2.37;;;;;;;;;;4971944;28;20426;-68
2023/05/17 08:20:13;;;;;;;3.17;1.50;;;;;;;;;;4957408;28;20956;-68
2023/05/17 08:22:39;;;;;;;19.23;2.10;;;;;;;;;;4951644;28;20479;-68
2023/05/17 08:25:06;;;;;;;2.63;1.73;;;;;;;;;;4965690;28;20541;-67
2023/05/17 08:27:32;;;;;;;3.50;2.03;;;;;;;;;;4964940;28;20891;-68
2023/05/17 08:29:58;;;;;;;2.10;1.60;;;;;;;;;;4972000;28;20993;-68
2023/05/17 08:32:24;;;;;;;5.33;2.10;;;;;;;;;;4971843;28;20421;-68
2023/05/17 08:34:50;;;;;;;2.40;2.10;;;;;;;;;;4972162;28;20557;-67
2023/05/17 08:37:17;;;;;;;1.80;1.60;;;;;;;;;;4971367;28;20513;-68
2023/05/17 08:39:43;;;;;;;3.90;2.20;;;;;;;;;;4958237;28;20485;-68
2023/05/17 08:42:09;;;;;;;3.57;1.70;;;;;;;;;;4952410;28;20478;-68
2023/05/17 08:44:37;;;;;;;1.77;1.53;;;;;;;;;;4951559;28;20434;-67
2023/05/17 08:47:03;;;;;;;4.20;1.87;;;;;;;;;;4970804;28;20484;-67
2023/05/17 08:49:36;;;;;;;1.53;1.50;;;;;;;;;;4972038;28;20422;-68
2023/05/17 08:52:08;;;;;;;3.60;1.13;;;;;;;;;;4971094;28;20426;-68
2023/05/17 08:54:34;;;;;;;3.40;1.97;;;;;;;;;;4970031;28;20819;-68
2023/05/17 08:57:01;;;;;;;1.60;1.50;;;;;;;;;;4970365;28;20521;-68
2023/05/17 08:59:32;;;;;;;2.30;2.10;;;;;;;;;;4970487;28;20517;-68
2023/05/17 09:01:58;;;;;;;8.30;3.40;;;;;;;;;;4963368;28;20438;-68
2023/05/17 09:04:24;;;;;;;4.37;1.67;;;;;;;;;;4952224;28;20570;-68
2023/05/17 09:06:50;;;;;;;2.53;1.77;;;;;;;;;;4959973;28;20848;-68
2023/05/17 09:09:17;;;;;;;5.17;2.13;;;;;;;;;;4971202;28;20431;-68
2023/05/17 09:11:44;;;;;;;4.37;1.83;;;;;;;;;;4971586;28;20426;-68
2023/05/17 09:14:10;;;;;;;1.83;1.23;;;;;;;;;;4970745;28;20430;-68
2023/05/17 09:16:36;;;;;;;2.97;1.40;;;;;;;;;;4970482;28;20925;-68
2023/05/17 09:19:04;;;;;;;1.53;1.50;;;;;;;;;;4971106;28;20533;-68
2023/05/17 09:21:30;;;;;;;6.63;1.77;;;;;;;;;;4971316;28;20418;-68
2023/05/17 09:24:00;;;;;;;3.23;2.47;;;;;;;;;;4964402;28;20486;-68
2023/05/17 09:26:36;;;;;;;3.50;2.70;;;;;;;;;;4970950;28;20414;-68
2023/05/17 09:29:07;;;;;;;2.03;1.80;;;;;;;;;;4971479;28;20437;-68
2023/05/17 09:31:33;;;;;;;5.67;2.33;;;;;;;;;;4971104;28;20506;-68
2023/05/17 09:33:59;;;;;;;2.20;2.10;;;;;;;;;;4971271;28;20428;-68
2023/05/17 09:36:25;;;;;;;2.30;2.10;;;;;;;;;;4970834;28;20799;-68
2023/05/17 09:39:03;;;;;;;1.73;1.73;;;;;;;;;;4969481;28;20442;-68
2023/05/17 09:41:32;;;;;;;5.27;1.90;;;;;;;;;;4957100;28;20445;-68
2023/05/17 09:44:02;;;;;;;2.80;2.20;;;;;;;;;;4962875;28;20498;-68
2023/05/17 09:46:33;;;;;;;2.73;1.70;;;;;;;;;;4970833;28;20457;-68
2023/05/17 09:49:01;;;;;;;5.30;2.13;;;;;;;;;;4970767;28;20422;-68
2023/05/17 09:51:31;;;;;;;2.23;2.10;;;;;;;;;;4970709;28;20484;-67
2023/05/17 09:53:57;;;;;;;3.23;1.93;;;;;;;;;;4969168;28;20428;-67
2023/05/17 09:56:27;;;;;;;4.10;2.20;;;;;;;;;;4970060;28;20513;-68
2023/05/17 09:58:52;;;;;;;6.43;2.37;;;;;;;;;;4969539;28;20484;-68
2023/05/17 10:01:19;;;;;;;2.83;2.13;;;;;;;;;;4965508;28;20521;-68
2023/05/17 10:03:45;;;;;;;2.10;2.00;;;;;;;;;;4959533;28;20489;-68
2023/05/17 10:06:11;;;;;;;4.90;1.70;;;;;;;;;;4969981;28;20472;-68
2023/05/17 10:08:38;;;;;;;1.93;1.83;;;;;;;;;;4969923;28;20446;-68
2023/05/17 10:11:08;;;;;;;4.77;2.10;;;;;;;;;;4964049;28;20466;-68
2023/05/17 10:13:37;;;;;;;2.00;1.90;;;;;;;;;;4957305;28;20474;-68
2023/05/17 10:16:03;;;;;;;2.53;1.93;;;;;;;;;;4964522;28;20429;-68
2023/05/17 10:18:30;;;;;;;3.03;2.33;;;;;;;;;;4959149;28;20451;-68
2023/05/17 10:20:56;;;;;;;1.93;1.70;;;;;;;;;;4969645;28;20438;-68
2023/05/17 10:23:23;;;;;;;8.43;2.10;;;;;;;;;;4963154;28;20481;-68
2023/05/17 10:25:49;;;;;;;3.60;2.20;;;;;;;;;;4973890;28;20528;-68
2023/05/17 10:28:16;;;;;;;2.20;1.50;;;;;;;;;;4974207;28;20429;-68
2023/05/17 10:30:43;;;;;;;2.30;2.10;;;;;;;;;;4972926;28;20950;-68
2023/05/17 10:33:09;;;;;;;2.00;1.40;;;;;;;;;;4974190;28;20426;-68
2023/05/17 10:35:35;;;;;;;4.03;1.93;;;;;;;;;;4973961;28;20426;-68
2023/05/17 10:38:01;;;;;;;1.90;1.80;;;;;;;;;;4972772;28;20461;-68
2023/05/17 10:40:29;;;;;;;3.03;2.17;;;;;;;;;;4972142;28;20460;-68
2023/05/17 10:42:55;;;;;;;1.90;1.80;;;;;;;;;;4954910;28;20474;-68
2023/05/17 10:45:24;;;;;;;3.20;1.80;;;;;;;;;;4954300;28;20450;-68
2023/05/17 10:47:51;;;;;;;2.40;2.30;;;;;;;;;;4973491;28;20406;-68
2023/05/17 10:50:21;;;;;;;2.80;2.60;;;;;;;;;;4965944;28;20442;-68
2023/05/17 10:52:48;;;;;;;4.67;2.50;;;;;;;;;;4972446;28;20577;-68
2023/05/17 10:55:18;;;;;;;2.30;2.20;;;;;;;;;;4973682;28;20429;-68
2023/05/17 10:57:57;;;;;;;2.53;1.83;;;;;;;;;;4972595;28;20909;-68
2023/05/17 11:00:28;;;;;;;5.33;2.60;;;;;;;;;;4968184;28;20793;-68
2023/05/17 11:03:10;;;;;;;3.30;1.97;;;;;;;;;;4970959;28;20485;-68
2023/05/17 11:05:36;;;;;;;4.37;2.37;;;;;;;;;;4973316;28;20421;-68
2023/05/17 11:08:15;;;;;;;1.90;1.80;;;;;;;;;;4973643;28;20437;-68
2023/05/17 11:11:02;;;;;;;4.17;2.00;;;;;;;;;;4973574;28;20441;-67
2023/05/17 11:13:28;;;;;;;1.87;1.73;;;;;;;;;;4969402;28;20433;-68
2023/05/17 11:16:10;;;;;;;2.13;2.00;;;;;;;;;;4973098;28;20426;-67
2023/05/17 11:18:48;;;;;;;2.70;2.00;;;;;;;;;;4973701;28;20561;-68
2023/05/17 11:21:18;;;;;;;3.03;2.23;;;;;;;;;;4970067;28;20426;-68
2023/05/17 11:23:44;;;;;;;2.97;2.40;;;;;;;;;;4962240;28;21020;-68
2023/05/17 11:26:17;;;;;;;1.97;1.87;;;;;;;;;;4952478;28;20492;-68
2023/05/17 11:28:43;;;;;;;2.03;1.83;;;;;;;;;;4971842;28;20445;-68
2023/05/17 11:31:10;;;;;;;1.77;1.70;;;;;;;;;;4971398;28;20950;-68
2023/05/17 11:33:41;;;;;;;2.20;2.10;;;;;;;;;;4954748;28;20446;-68
2023/05/17 11:36:14;;;;;;;2.17;1.93;;;;;;;;;;4972416;28;20428;-68
2023/05/17 11:38:40;;;;;;;1.70;1.53;;;;;;;;;;4971810;28;20434;-68
2023/05/17 11:41:16;;;;;;;4.63;2.20;;;;;;;;;;4973260;28;20908;-68
2023/05/17 11:43:45;;;;;;;3.00;2.20;;;;;;;;;;4973222;28;20481;-68
2023/05/17 11:46:18;;;;;;;3.20;2.17;;;;;;;;;;4972603;28;20418;-68
2023/05/17 11:48:44;;;;;;;2.60;1.80;;;;;;;;;;4973459;28;20430;-69
2023/05/17 11:51:14;;;;;;;3.93;1.70;;;;;;;;;;4968221;28;20420;-68
2023/05/17 11:53:40;;;;;;;7.63;2.13;;;;;;;;;;4972701;28;20456;-68
2023/05/17 11:56:07;;;;;;;2.40;1.93;;;;;;;;;;4956302;28;20514;-68
2023/05/17 11:58:34;;;;;;;2.70;2.30;;;;;;;;;;4971990;28;20613;-68
2023/05/17 12:01:00;;;;;;;1.97;1.77;;;;;;;;;;4971452;28;20418;-68
2023/05/17 12:03:27;;;;;;;2.37;2.27;;;;;;;;;;4957483;28;20588;-68
2023/05/17 12:06:05;;;;;;;1.90;1.90;;;;;;;;;;4968219;28;20430;-68
2023/05/17 12:08:35;;;;;;;2.10;2.00;;;;;;;;;;4961130;28;20453;-68
2023/05/17 12:11:02;;;;;;;5.30;1.70;;;;;;;;;;4970969;28;20525;-68
2023/05/17 12:13:29;;;;;;;2.37;1.60;;;;;;;;;;4967085;28;20808;-67
2023/05/17 12:15:59;;;;;;;4.83;1.77;;;;;;;;;;4972393;28;20430;-68
2023/05/17 12:18:36;;;;;;;1.87;1.70;;;;;;;;;;4968961;28;20447;-68
2023/05/17 12:21:02;;;;;;;4.67;2.40;;;;;;;;;;4965064;28;20482;-68
2023/05/17 12:23:29;;;;;;;4.23;2.30;;;;;;;;;;4952911;28;20478;-68
2023/05/17 12:26:06;;;;;;;1.90;1.80;;;;;;;;;;4960182;28;20696;-68
2023/05/17 12:28:32;;;;;;;4.77;2.17;;;;;;;;;;4972131;28;20784;-68
2023/05/17 12:31:01;;;;;;;2.00;1.90;;;;;;;;;;4972392;28;20427;-68
2023/05/17 12:33:29;;;;;;;4.17;1.93;;;;;;;;;;4971872;28;20437;-68
2023/05/17 12:35:55;;;;;;;8.30;3.87;;;;;;;;;;4971820;28;20480;-68
2023/05/17 12:38:21;;;;;;;2.20;2.10;;;;;;;;;;4952521;28;20497;-68
2023/05/17 12:40:47;;;;;;;7.13;2.10;;;;;;;;;;4950743;28;20464;-68
2023/05/17 12:43:13;;;;;;;1.93;1.73;;;;;;;;;;4954776;28;20952;-68
2023/05/17 12:45:42;;;;;;;4.53;2.70;;;;;;;;;;4967111;28;21036;-68
2023/05/17 12:48:08;;;;;;;3.10;2.60;;;;;;;;;;4971554;28;20441;-68
2023/05/17 12:50:34;;;;;;;4.17;3.30;;;;;;;;;;4971935;28;20422;-68
2023/05/17 12:53:07;;;;;;;5.63;3.20;;;;;;;;;;4955389;28;20438;-68
2023/05/17 12:55:36;;;;;;;3.40;3.20;;;;;;;;;;4970856;28;20458;-68
2023/05/17 12:58:03;;;;;;;2.40;2.30;;;;;;;;;;4965214;28;20478;-68
2023/05/17 13:00:29;;;;;;;4.73;3.50;;;;;;;;;;4953818;28;20450;-68
2023/05/17 13:02:55;;;;;;;4.33;3.03;;;;;;;;;;4964769;28;20512;-68
2023/05/17 13:05:21;;;;;;;2.57;2.47;;;;;;;;;;4971746;28;20969;-68
2023/05/17 13:07:48;;;;;;;4.20;3.47;;;;;;;;;;4969514;28;20882;-68
2023/05/17 13:10:27;;;;;;;3.40;3.20;;;;;;;;;;4971618;28;20505;-68
2023/05/17 13:12:59;;;;;;;2.40;2.30;;;;;;;;;;4971153;28;20554;-68
2023/05/17 13:15:31;;;;;;;5.30;2.97;;;;;;;;;;4969902;28;20438;-68
2023/05/17 13:17:58;;;;;;;5.03;3.03;;;;;;;;;;4970454;28;20426;-68
2023/05/17 13:20:25;;;;;;;4.93;2.03;;;;;;;;;;4967993;28;20438;-68
2023/05/17 13:22:51;;;;;;;3.43;3.13;;;;;;;;;;4971095;28;20615;-68
2023/05/17 13:25:17;;;;;;;3.23;3.07;;;;;;;;;;4971498;28;20814;-68
2023/05/17 13:27:47;;;;;;;2.73;2.30;;;;;;;;;;4970878;28;20516;-68
2023/05/17 13:30:13;;;;;;;5.10;2.73;;;;;;;;;;4968465;28;20421;-68
2023/05/17 13:32:39;;;;;;;2.30;2.20;;;;;;;;;;4971299;28;20529;-68
2023/05/17 13:35:06;;;;;;;3.93;3.07;;;;;;;;;;4971397;28;20981;-68
2023/05/17 13:37:32;;;;;;;3.53;3.00;;;;;;;;;;4970297;28;20501;-68
2023/05/17 13:39:58;;;;;;;3.37;3.13;;;;;;;;;;4971193;28;20509;-68
2023/05/17 13:42:24;;;;;;;2.47;2.30;;;;;;;;;;4969785;28;20473;-68
2023/05/17 13:44:50;;;;;;;5.00;2.93;;;;;;;;;;4971305;28;20921;-68
2023/05/17 13:47:16;;;;;;;3.60;3.33;;;;;;;;;;4970958;28;20422;-68
2023/05/17 13:49:42;;;;;;;7.80;3.30;;;;;;;;;;4969623;28;20430;-68
2023/05/17 13:52:08;;;;;;;3.03;2.83;;;;;;;;;;4970093;28;20549;-68
2023/05/17 13:54:34;;;;;;;3.53;2.67;;;;;;;;;;4971218;28;20944;-68
2023/05/17 13:57:00;;;;;;;3.10;2.80;;;;;;;;;;4971287;28;20430;-68
2023/05/17 13:59:27;;;;;;;5.40;2.60;;;;;;;;;;4960699;28;20474;-68
2023/05/17 14:01:53;;;;;;;5.33;2.47;;;;;;;;;;4951439;28;20765;-68
2023/05/17 14:04:20;;;;;;;1.47;1.47;;;;;;;;;;4970992;28;20521;-68
2023/05/17 14:06:46;;;;;;;2.30;2.10;;;;;;;;;;4970947;28;20429;-68
2023/05/17 14:09:12;;;;;;;1.83;1.70;;;;;;;;;;4970321;28;20422;-68
2023/05/17 14:11:39;;;;;;;3.37;3.07;;;;;;;;;;4970806;28;20496;-68
2023/05/17 14:14:04;;;;;;;3.20;3.00;;;;;;;;;;4971026;28;20750;-68
2023/05/17 14:16:30;;;;;;;2.40;2.27;;;;;;;;;;4970991;28;20517;-68
2023/05/17 14:18:56;;;;;;;2.23;2.13;;;;;;;;;;4970324;28;20434;-68
2023/05/17 14:21:22;;;;;;;4.80;3.03;;;;;;;;;;4970145;28;20430;-68
2023/05/17 14:23:49;;;;;;;2.60;2.33;;;;;;;;;;4970668;28;20985;-68
2023/05/17 14:26:15;;;;;;;4.53;2.60;;;;;;;;;;4970884;28;20437;-68
2023/05/17 14:28:41;;;;;;;3.33;2.90;;;;;;;;;;4970214;28;20442;-68
2023/05/17 14:31:07;;;;;;;3.53;2.57;;;;;;;;;;4970696;28;20783;-68
2023/05/17 14:33:33;;;;;;;5.60;2.87;;;;;;;;;;4970998;28;20430;-68
2023/05/17 14:35:59;;;;;;;7.60;3.13;;;;;;;;;;4970788;28;20418;-68
2023/05/17 14:38:25;;;;;;;2.67;2.53;;;;;;;;;;4969641;28;20429;-68
2023/05/17 14:40:51;;;;;;;2.73;2.10;;;;;;;;;;4969110;28;20425;-68
2023/05/17 14:43:19;;;;;;;4.90;2.70;;;;;;;;;;4970786;28;20831;-68